sensor_id;sensor_type;location;lat;lon;timestamp;pressure;altitude;pressure_sealevel;temperature;humidity
67457;BME280;54319;52.038;4.640;2024-03-07T00:00:43;102662.06;;;3.93;100.00
67457;BME280;54319;52.038;4.640;2024-03-07T00:03:09;102656.31;;;3.86;100.00
67457;BME280;54319;52.038;4.640;2024-03-07T00:05:36;102671.91;;;3.94;100.00
67457;BME280;54319;52.038;4.640;2024-03-07T00:08:05;102666.63;;;3.93;100.00
67457;BME280;54319;52.038;4.640;2024-03-07T00:10:32;102650.44;;;3.81;100.00
67457;BME280;54319;52.038;4.640;2024-03-07T00:13:01;102673.00;;;3.91;100.00
67457;BME280;54319;52.038;4.640;2024-03-07T00:15:29;102658.75;;;3.78;100.00
67457;BME280;54319;52.038;4.640;2024-03-07T00:17:57;102670.06;;;3.83;100.00
67457;BME280;54319;52.038;4.640;2024-03-07T00:20:26;102656.19;;;3.76;100.00
67457;BME280;54319;52.038;4.640;2024-03-07T00:22:53;102670.19;;;3.82;100.00
67457;BME280;54319;52.038;4.640;2024-03-07T00:25:19;102657.78;;;3.68;100.00
67457;BME280;54319;52.038;4.640;2024-03-07T00:27:47;102667.84;;;3.77;100.00
67457;BME280;54319;52.038;4.640;2024-03-07T00:30:15;102667.84;;;3.66;100.00
67457;BME280;54319;52.038;4.640;2024-03-07T00:32:43;102674.72;;;3.70;100.00
67457;BME280;54319;52.038;4.640;2024-03-07T00:35:11;102666.25;;;3.63;100.00
67457;BME280;54319;52.038;4.640;2024-03-07T00:37:38;102665.53;;;3.61;100.00
67457;BME280;54319;52.038;4.640;2024-03-07T00:40:06;102664.16;;;3.55;100.00
67457;BME280;54319;52.038;4.640;2024-03-07T00:42:33;102667.09;;;3.52;100.00
67457;BME280;54319;52.038;4.640;2024-03-07T00:45:00;102637.38;;;3.29;100.00
67457;BME280;54319;52.038;4.640;2024-03-07T00:47:27;102674.94;;;3.44;100.00
67457;BME280;54319;52.038;4.640;2024-03-07T00:49:53;102668.03;;;3.40;100.00
67457;BME280;54319;52.038;4.640;2024-03-07T00:52:22;102671.50;;;3.42;100.00
67457;BME280;54319;52.038;4.640;2024-03-07T00:54:49;102652.34;;;3.33;100.00
67457;BME280;54319;52.038;4.640;2024-03-07T00:57:16;102666.13;;;3.42;100.00
67457;BME280;54319;52.038;4.640;2024-03-07T00:59:43;102663.41;;;3.42;100.00
67457;BME280;54319;52.038;4.640;2024-03-07T01:02:10;102663.53;;;3.40;100.00
67457;BME280;54319;52.038;4.640;2024-03-07T01:04:36;102638.34;;;3.28;100.00
67457;BME280;54319;52.038;4.640;2024-03-07T01:07:08;102644.88;;;3.37;100.00
67457;BME280;54319;52.038;4.640;2024-03-07T01:09:36;102651.84;;;3.40;100.00
67457;BME280;54319;52.038;4.640;2024-03-07T01:12:04;102644.97;;;3.36;100.00
67457;BME280;54319;52.038;4.640;2024-03-07T01:14:31;102653.81;;;3.38;100.00
67457;BME280;54319;52.038;4.640;2024-03-07T01:16:58;102651.25;;;3.36;100.00
67457;BME280;54319;52.038;4.640;2024-03-07T01:19:24;102645.84;;;3.36;100.00
67457;BME280;54319;52.038;4.640;2024-03-07T01:21:51;102646.94;;;3.33;100.00
67457;BME280;54319;52.038;4.640;2024-03-07T01:24:18;102647.09;;;3.32;100.00
67457;BME280;54319;52.038;4.640;2024-03-07T01:26:47;102620.69;;;3.13;100.00
67457;BME280;54319;52.038;4.640;2024-03-07T01:29:14;102602.13;;;2.97;100.00
67457;BME280;54319;52.038;4.640;2024-03-07T01:31:41;102647.19;;;3.30;100.00
67457;BME280;54319;52.038;4.640;2024-03-07T01:34:08;102599.31;;;2.98;100.00
67457;BME280;54319;52.038;4.640;2024-03-07T01:36:35;102646.94;;;3.22;100.00
67457;BME280;54319;52.038;4.640;2024-03-07T01:39:02;102608.66;;;3.06;100.00
67457;BME280;54319;52.038;4.640;2024-03-07T01:41:29;102635.50;;;3.18;100.00
67457;BME280;54319;52.038;4.640;2024-03-07T01:43:57;102627.28;;;3.09;100.00
67457;BME280;54319;52.038;4.640;2024-03-07T01:46:24;102637.59;;;3.15;100.00
67457;BME280;54319;52.038;4.640;2024-03-07T01:48:51;102640.53;;;3.12;100.00
67457;BME280;54319;52.038;4.640;2024-03-07T01:51:18;102638.91;;;3.09;100.00
67457;BME280;54319;52.038;4.640;2024-03-07T01:53:47;102601.47;;;2.82;100.00
67457;BME280;54319;52.038;4.640;2024-03-07T01:56:13;102634.13;;;3.01;100.00
67457;BME280;54319;52.038;4.640;2024-03-07T01:58:40;102635.81;;;3.02;100.00
67457;BME280;54319;52.038;4.640;2024-03-07T02:01:10;102640.28;;;3.03;100.00
67457;BME280;54319;52.038;4.640;2024-03-07T02:03:39;102636.81;;;3.01;100.00
67457;BME280;54319;52.038;4.640;2024-03-07T02:06:07;102643.06;;;3.02;100.00
67457;BME280;54319;52.038;4.640;2024-03-07T02:08:35;102621.25;;;2.94;100.00
67457;BME280;54319;52.038;4.640;2024-03-07T02:11:02;102629.94;;;2.97;100.00
67457;BME280;54319;52.038;4.640;2024-03-07T02:13:29;102629.94;;;2.97;100.00
67457;BME280;54319;52.038;4.640;2024-03-07T02:15:56;102623.06;;;2.93;100.00
67457;BME280;54319;52.038;4.640;2024-03-07T02:18:25;102623.06;;;2.93;100.00
67457;BME280;54319;52.038;4.640;2024-03-07T02:20:54;102619.63;;;2.91;100.00
67457;BME280;54319;52.038;4.640;2024-03-07T02:23:21;102621.59;;;2.89;100.00
67457;BME280;54319;52.038;4.640;2024-03-07T02:25:48;102619.03;;;2.87;100.00
67457;BME280;54319;52.038;4.640;2024-03-07T02:28:14;102615.44;;;2.87;100.00
67457;BME280;54319;52.038;4.640;2024-03-07T02:30:41;102613.72;;;2.86;100.00
67457;BME280;54319;52.038;4.640;2024-03-07T02:33:08;102609.41;;;2.83;100.00
67457;BME280;54319;52.038;4.640;2024-03-07T02:35:35;102586.84;;;2.73;100.00
67457;BME280;54319;52.038;4.640;2024-03-07T02:38:04;102584.22;;;2.60;100.00
67457;BME280;54319;52.038;4.640;2024-03-07T02:40:31;102603.81;;;2.86;100.00
67457;BME280;54319;52.038;4.640;2024-03-07T02:42:58;102604.91;;;2.84;100.00
67457;BME280;54319;52.038;4.640;2024-03-07T02:45:25;102605.00;;;2.82;100.00
67457;BME280;54319;52.038;4.640;2024-03-07T02:47:52;102603.44;;;2.80;100.00
67457;BME280;54319;52.038;4.640;2024-03-07T02:50:19;102598.03;;;2.80;100.00
67457;BME280;54319;52.038;4.640;2024-03-07T02:52:47;102602.56;;;2.79;100.00
67457;BME280;54319;52.038;4.640;2024-03-07T02:55:15;102600.00;;;2.78;100.00
67457;BME280;54319;52.038;4.640;2024-03-07T02:57:42;102601.94;;;2.75;100.00
67457;BME280;54319;52.038;4.640;2024-03-07T03:00:10;102590.19;;;2.77;100.00
67457;BME280;54319;52.038;4.640;2024-03-07T03:02:45;102595.56;;;2.77;100.00
67457;BME280;54319;52.038;4.640;2024-03-07T03:05:12;102592.97;;;2.75;100.00
67457;BME280;54319;52.038;4.640;2024-03-07T03:07:39;102586.75;;;2.74;100.00
67457;BME280;54319;52.038;4.640;2024-03-07T03:10:08;102593.22;;;2.72;100.00
67457;BME280;54319;52.038;4.640;2024-03-07T03:12:38;102592.47;;;2.70;100.00
67457;BME280;54319;52.038;4.640;2024-03-07T03:15:07;102585.50;;;2.67;100.00
67457;BME280;54319;52.038;4.640;2024-03-07T03:17:37;102582.81;;;2.67;100.00
67457;BME280;54319;52.038;4.640;2024-03-07T03:20:04;102579.38;;;2.65;100.00
67457;BME280;54319;52.038;4.640;2024-03-07T03:22:40;102586.47;;;2.66;100.00
67457;BME280;54319;52.038;4.640;2024-03-07T03:25:09;102587.47;;;2.65;100.00
67457;BME280;54319;52.038;4.640;2024-03-07T03:27:37;102585.72;;;2.64;100.00
67457;BME280;54319;52.038;4.640;2024-03-07T03:30:06;102586.81;;;2.62;100.00
67457;BME280;54319;52.038;4.640;2024-03-07T03:32:38;102578.22;;;2.56;100.00
67457;BME280;54319;52.038;4.640;2024-03-07T03:35:06;102580.78;;;2.58;100.00
67457;BME280;54319;52.038;4.640;2024-03-07T03:37:39;102581.91;;;2.55;100.00
67457;BME280;54319;52.038;4.640;2024-03-07T03:40:06;102584.47;;;2.57;100.00
67457;BME280;54319;52.038;4.640;2024-03-07T03:42:36;102571.13;;;2.55;100.00
67457;BME280;54319;52.038;4.640;2024-03-07T03:45:07;102561.44;;;2.53;100.00
67457;BME280;54319;52.038;4.640;2024-03-07T03:47:35;102571.97;;;2.56;100.00
67457;BME280;54319;52.038;4.640;2024-03-07T03:50:03;102560.97;;;2.59;100.00
67457;BME280;54319;52.038;4.640;2024-03-07T03:52:30;102547.22;;;2.51;100.00
67457;BME280;54319;52.038;4.640;2024-03-07T03:54:57;102567.16;;;2.72;100.00
67457;BME280;54319;52.038;4.640;2024-03-07T03:57:24;102562.25;;;2.78;100.00
67457;BME280;54319;52.038;4.640;2024-03-07T03:59:51;102543.06;;;2.58;100.00
67457;BME280;54319;52.038;4.640;2024-03-07T04:02:20;102556.66;;;2.92;100.00
67457;BME280;54319;52.038;4.640;2024-03-07T04:04:47;102559.84;;;2.97;100.00
67457;BME280;54319;52.038;4.640;2024-03-07T04:07:14;102558.63;;;3.01;100.00
67457;BME280;54319;52.038;4.640;2024-03-07T04:09:42;102557.28;;;3.07;100.00
67457;BME280;54319;52.038;4.640;2024-03-07T04:12:09;102563.19;;;3.12;100.00
67457;BME280;54319;52.038;4.640;2024-03-07T04:14:36;102562.69;;;3.18;100.00
67457;BME280;54319;52.038;4.640;2024-03-07T04:17:03;102563.22;;;3.24;100.00
67457;BME280;54319;52.038;4.640;2024-03-07T04:19:40;102547.03;;;3.24;100.00
67457;BME280;54319;52.038;4.640;2024-03-07T04:22:08;102557.06;;;3.33;100.00
67457;BME280;54319;52.038;4.640;2024-03-07T04:24:34;102549.81;;;3.33;100.00
67457;BME280;54319;52.038;4.640;2024-03-07T04:27:04;102556.81;;;3.36;100.00
67457;BME280;54319;52.038;4.640;2024-03-07T04:29:32;102543.44;;;3.12;100.00
67457;BME280;54319;52.038;4.640;2024-03-07T04:32:01;102557.81;;;3.35;100.00
67457;BME280;54319;52.038;4.640;2024-03-07T04:34:29;102546.16;;;3.35;100.00
67457;BME280;54319;52.038;4.640;2024-03-07T04:36:57;102550.94;;;3.31;100.00
67457;BME280;54319;52.038;4.640;2024-03-07T04:39:26;102553.16;;;3.26;100.00
67457;BME280;54319;52.038;4.640;2024-03-07T04:41:58;102548.22;;;3.19;100.00
67457;BME280;54319;52.038;4.640;2024-03-07T04:44:26;102545.75;;;3.16;100.00
67457;BME280;54319;52.038;4.640;2024-03-07T04:46:53;102524.34;;;3.03;100.00
67457;BME280;54319;52.038;4.640;2024-03-07T04:49:22;102541.84;;;3.09;100.00
67457;BME280;54319;52.038;4.640;2024-03-07T04:51:50;102497.31;;;2.81;100.00
67457;BME280;54319;52.038;4.640;2024-03-07T04:54:18;102555.47;;;3.08;100.00
67457;BME280;54319;52.038;4.640;2024-03-07T04:56:46;102551.16;;;3.05;100.00
67457;BME280;54319;52.038;4.640;2024-03-07T04:59:13;102532.38;;;2.92;100.00
67457;BME280;54319;52.038;4.640;2024-03-07T05:01:40;102553.34;;;3.00;100.00
67457;BME280;54319;52.038;4.640;2024-03-07T05:04:07;102546.72;;;2.93;100.00
67457;BME280;54319;52.038;4.640;2024-03-07T05:06:34;102557.28;;;2.96;100.00
67457;BME280;54319;52.038;4.640;2024-03-07T05:09:02;102548.44;;;2.94;100.00
67457;BME280;54319;52.038;4.640;2024-03-07T05:11:31;102552.13;;;2.93;100.00
67457;BME280;54319;52.038;4.640;2024-03-07T05:13:59;102546.09;;;2.89;100.00
67457;BME280;54319;52.038;4.640;2024-03-07T05:16:26;102558.97;;;2.85;100.00
67457;BME280;54319;52.038;4.640;2024-03-07T05:18:53;102536.63;;;2.72;100.00
67457;BME280;54319;52.038;4.640;2024-03-07T05:21:24;102558.34;;;2.82;100.00
67457;BME280;54319;52.038;4.640;2024-03-07T05:24:01;102547.81;;;2.79;100.00
67457;BME280;54319;52.038;4.640;2024-03-07T05:26:28;102566.91;;;2.75;100.00
67457;BME280;54319;52.038;4.640;2024-03-07T05:29:01;102552.19;;;2.68;100.00
67457;BME280;54319;52.038;4.640;2024-03-07T05:31:30;102547.53;;;2.70;100.00
67457;BME280;54319;52.038;4.640;2024-03-07T05:33:59;102556.59;;;2.69;100.00
67457;BME280;54319;52.038;4.640;2024-03-07T05:36:29;102548.75;;;2.66;100.00
67457;BME280;54319;52.038;4.640;2024-03-07T05:38:56;102548.13;;;2.63;100.00
67457;BME280;54319;52.038;4.640;2024-03-07T05:41:23;102545.53;;;2.61;100.00
67457;BME280;54319;52.038;4.640;2024-03-07T05:43:50;102550.91;;;2.61;100.00
67457;BME280;54319;52.038;4.640;2024-03-07T05:46:21;102546.50;;;2.60;100.00
67457;BME280;54319;52.038;4.640;2024-03-07T05:48:49;102546.75;;;2.57;100.00
67457;BME280;54319;52.038;4.640;2024-03-07T05:51:17;102550.19;;;2.59;100.00
67457;BME280;54319;52.038;4.640;2024-03-07T05:53:44;102526.38;;;2.41;100.00
67457;BME280;54319;52.038;4.640;2024-03-07T05:56:12;102545.25;;;2.53;100.00
67457;BME280;54319;52.038;4.640;2024-03-07T05:58:40;102543.78;;;2.49;100.00
67457;BME280;54319;52.038;4.640;2024-03-07T06:01:06;102536.03;;;2.44;100.00
67457;BME280;54319;52.038;4.640;2024-03-07T06:03:40;102540.59;;;2.43;100.00
67457;BME280;54319;52.038;4.640;2024-03-07T06:06:07;102533.72;;;2.39;100.00
67457;BME280;54319;52.038;4.640;2024-03-07T06:08:51;102550.63;;;2.41;100.00
67457;BME280;54319;52.038;4.640;2024-03-07T06:11:24;102548.16;;;2.38;100.00
67457;BME280;54319;52.038;4.640;2024-03-07T06:13:51;102545.56;;;2.37;100.00
67457;BME280;54319;52.038;4.640;2024-03-07T06:16:18;102533.31;;;2.33;100.00
67457;BME280;54319;52.038;4.640;2024-03-07T06:18:47;102542.88;;;2.37;100.00
67457;BME280;54319;52.038;4.640;2024-03-07T06:21:14;102543.75;;;2.37;100.00
67457;BME280;54319;52.038;4.640;2024-03-07T06:23:42;102544.50;;;2.39;100.00
67457;BME280;54319;52.038;4.640;2024-03-07T06:26:13;102496.59;;;2.07;100.00
67457;BME280;54319;52.038;4.640;2024-03-07T06:28:42;102544.59;;;2.38;100.00
67457;BME280;54319;52.038;4.640;2024-03-07T06:31:10;102542.53;;;2.41;100.00
67457;BME280;54319;52.038;4.640;2024-03-07T06:33:37;102542.63;;;2.40;100.00
67457;BME280;54319;52.038;4.640;2024-03-07T06:36:06;102536.28;;;2.41;100.00
67457;BME280;54319;52.038;4.640;2024-03-07T06:38:34;102538.88;;;2.42;100.00
67457;BME280;54319;52.038;4.640;2024-03-07T06:41:04;102525.97;;;2.35;100.00
67457;BME280;54319;52.038;4.640;2024-03-07T06:43:31;102536.28;;;2.41;100.00
67457;BME280;54319;52.038;4.640;2024-03-07T06:45:58;102532.38;;;2.45;100.00
67457;BME280;54319;52.038;4.640;2024-03-07T06:48:24;102542.94;;;2.48;100.00
67457;BME280;54319;52.038;4.640;2024-03-07T06:50:51;102533.75;;;2.51;100.00
67457;BME280;54319;52.038;4.640;2024-03-07T06:53:19;102536.19;;;2.54;100.00
67457;BME280;54319;52.038;4.640;2024-03-07T06:55:51;102540.50;;;2.56;100.00
67457;BME280;54319;52.038;4.640;2024-03-07T06:58:18;102532.19;;;2.59;100.00
67457;BME280;54319;52.038;4.640;2024-03-07T07:00:46;102528.38;;;2.62;100.00
67457;BME280;54319;52.038;4.640;2024-03-07T07:03:13;102529.91;;;2.66;100.00
67457;BME280;54319;52.038;4.640;2024-03-07T07:05:39;102533.09;;;2.71;100.00
67457;BME280;54319;52.038;4.640;2024-03-07T07:08:07;102528.44;;;2.73;100.00
67457;BME280;54319;52.038;4.640;2024-03-07T07:10:35;102526.34;;;2.77;100.00
67457;BME280;54319;52.038;4.640;2024-03-07T07:13:03;102520.13;;;2.77;100.00
67457;BME280;54319;52.038;4.640;2024-03-07T07:15:30;102540.25;;;3.29;100.00
67457;BME280;54319;52.038;4.640;2024-03-07T07:17:56;102538.91;;;3.46;100.00
67457;BME280;54319;52.038;4.640;2024-03-07T07:20:24;102529.84;;;3.47;100.00
67457;BME280;54319;52.038;4.640;2024-03-07T07:22:51;102545.19;;;3.47;100.00
67457;BME280;54319;52.038;4.640;2024-03-07T07:25:18;102546.41;;;3.43;100.00
67457;BME280;54319;52.038;4.640;2024-03-07T07:27:49;102546.41;;;3.43;100.00
67457;BME280;54319;52.038;4.640;2024-03-07T07:30:16;102545.66;;;3.41;100.00
67457;BME280;54319;52.038;4.640;2024-03-07T07:32:44;102543.94;;;3.40;100.00
67457;BME280;54319;52.038;4.640;2024-03-07T07:35:12;102547.88;;;3.47;100.00
67457;BME280;54319;52.038;4.640;2024-03-07T07:37:39;102545.25;;;3.80;100.00
67457;BME280;54319;52.038;4.640;2024-03-07T07:40:06;102530.47;;;4.39;100.00
67457;BME280;54319;52.038;4.640;2024-03-07T07:42:35;102548.22;;;5.17;100.00
67457;BME280;54319;52.038;4.640;2024-03-07T07:45:07;102553.88;;;5.76;100.00
67457;BME280;54319;52.038;4.640;2024-03-07T07:47:37;102544.56;;;6.19;100.00
67457;BME280;54319;52.038;4.640;2024-03-07T07:50:07;102541.31;;;6.45;100.00
67457;BME280;54319;52.038;4.640;2024-03-07T07:52:40;102549.16;;;6.39;100.00
67457;BME280;54319;52.038;4.640;2024-03-07T07:55:07;102537.88;;;6.33;100.00
67457;BME280;54319;52.038;4.640;2024-03-07T07:57:40;102545.41;;;6.20;100.00
67457;BME280;54319;52.038;4.640;2024-03-07T08:00:10;102549.66;;;6.03;100.00
67457;BME280;54319;52.038;4.640;2024-03-07T08:02:37;102548.34;;;5.87;100.00
67457;BME280;54319;52.038;4.640;2024-03-07T08:05:04;102549.63;;;5.83;100.00
67457;BME280;54319;52.038;4.640;2024-03-07T08:07:31;102551.25;;;5.64;100.00
67457;BME280;54319;52.038;4.640;2024-03-07T08:09:58;102551.88;;;5.37;100.00
67457;BME280;54319;52.038;4.640;2024-03-07T08:12:25;102542.34;;;5.43;100.00
67457;BME280;54319;52.038;4.640;2024-03-07T08:14:51;102543.63;;;5.39;100.00
67457;BME280;54319;52.038;4.640;2024-03-07T08:17:19;102465.22;;;4.86;100.00
67457;BME280;54319;52.038;4.640;2024-03-07T08:19:46;102537.13;;;5.20;100.00
67457;BME280;54319;52.038;4.640;2024-03-07T08:22:14;102543.56;;;5.29;100.00
67457;BME280;54319;52.038;4.640;2024-03-07T08:24:43;102549.88;;;5.39;100.00
67457;BME280;54319;52.038;4.640;2024-03-07T08:27:09;102543.91;;;5.45;100.00
67457;BME280;54319;52.038;4.640;2024-03-07T08:29:38;102546.06;;;5.42;100.00
67457;BME280;54319;52.038;4.640;2024-03-07T08:32:06;102541.09;;;5.47;100.00
67457;BME280;54319;52.038;4.640;2024-03-07T08:34:35;102532.56;;;5.61;100.00
67457;BME280;54319;52.038;4.640;2024-03-07T08:37:02;102535.28;;;5.61;100.00
67457;BME280;54319;52.038;4.640;2024-03-07T08:39:30;102540.44;;;5.64;100.00
67457;BME280;54319;52.038;4.640;2024-03-07T08:41:56;102526.09;;;5.74;100.00
67457;BME280;54319;52.038;4.640;2024-03-07T08:44:23;102539.09;;;5.90;100.00
67457;BME280;54319;52.038;4.640;2024-03-07T08:46:50;102524.97;;;5.96;100.00
67457;BME280;54319;52.038;4.640;2024-03-07T08:49:16;102527.47;;;6.09;100.00
67457;BME280;54319;52.038;4.640;2024-03-07T08:51:45;102505.06;;;6.07;100.00
67457;BME280;54319;52.038;4.640;2024-03-07T08:54:11;102519.75;;;6.14;100.00
67457;BME280;54319;52.038;4.640;2024-03-07T08:56:38;102529.03;;;6.31;100.00
67457;BME280;54319;52.038;4.640;2024-03-07T08:59:05;102512.75;;;6.41;100.00
67457;BME280;54319;52.038;4.640;2024-03-07T09:01:32;102499.06;;;6.23;100.00
67457;BME280;54319;52.038;4.640;2024-03-07T09:03:59;102504.78;;;6.40;100.00
67457;BME280;54319;52.038;4.640;2024-03-07T09:06:26;102509.50;;;6.37;100.00
67457;BME280;54319;52.038;4.640;2024-03-07T09:08:54;102505.06;;;6.36;100.00
67457;BME280;54319;52.038;4.640;2024-03-07T09:11:21;102506.78;;;6.47;100.00
67457;BME280;54319;52.038;4.640;2024-03-07T09:13:47;102509.34;;;6.59;100.00
67457;BME280;54319;52.038;4.640;2024-03-07T09:16:15;102511.44;;;6.75;100.00
67457;BME280;54319;52.038;4.640;2024-03-07T09:18:42;102506.13;;;6.93;100.00
67457;BME280;54319;52.038;4.640;2024-03-07T09:21:08;102503.53;;;6.91;100.00
67457;BME280;54319;52.038;4.640;2024-03-07T09:23:35;102505.22;;;7.02;100.00
67457;BME280;54319;52.038;4.640;2024-03-07T09:26:04;102508.63;;;7.14;100.00
67457;BME280;54319;52.038;4.640;2024-03-07T09:28:32;102507.44;;;7.27;100.00
67457;BME280;54319;52.038;4.640;2024-03-07T09:30:59;102511.13;;;7.35;100.00
67457;BME280;54319;52.038;4.640;2024-03-07T09:33:25;102511.69;;;7.39;100.00
67457;BME280;54319;52.038;4.640;2024-03-07T09:35:53;102507.34;;;7.46;100.00
67457;BME280;54319;52.038;4.640;2024-03-07T09:38:19;102504.28;;;7.59;100.00
67457;BME280;54319;52.038;4.640;2024-03-07T09:40:46;102497.25;;;7.66;100.00
67457;BME280;54319;52.038;4.640;2024-03-07T09:43:15;102499.25;;;7.64;100.00
67457;BME280;54319;52.038;4.640;2024-03-07T09:45:46;102497.06;;;7.68;100.00
67457;BME280;54319;52.038;4.640;2024-03-07T09:48:13;102500.88;;;7.75;100.00
67457;BME280;54319;52.038;4.640;2024-03-07T09:50:40;102502.53;;;7.86;100.00
67457;BME280;54319;52.038;4.640;2024-03-07T09:53:07;102495.78;;;7.90;100.00
67457;BME280;54319;52.038;4.640;2024-03-07T09:55:36;102494.38;;;7.86;100.00
67457;BME280;54319;52.038;4.640;2024-03-07T09:58:04;102496.47;;;7.92;100.00
67457;BME280;54319;52.038;4.640;2024-03-07T10:00:35;102490.13;;;8.02;100.00
67457;BME280;54319;52.038;4.640;2024-03-07T10:03:05;102484.47;;;8.13;100.00
67457;BME280;54319;52.038;4.640;2024-03-07T10:05:33;102497.28;;;8.21;100.00
67457;BME280;54319;52.038;4.640;2024-03-07T10:08:00;102495.09;;;8.24;100.00
67457;BME280;54319;52.038;4.640;2024-03-07T10:10:27;102490.13;;;8.38;100.00
67457;BME280;54319;52.038;4.640;2024-03-07T10:12:55;102482.88;;;8.47;100.00
67457;BME280;54319;52.038;4.640;2024-03-07T10:15:28;102455.78;;;8.37;100.00
67457;BME280;54319;52.038;4.640;2024-03-07T10:17:56;102476.34;;;8.39;100.00
67457;BME280;54319;52.038;4.640;2024-03-07T10:20:23;102481.75;;;8.49;100.00
67457;BME280;54319;52.038;4.640;2024-03-07T10:22:53;102462.63;;;8.41;99.71
67457;BME280;54319;52.038;4.640;2024-03-07T10:25:20;102464.31;;;8.42;100.00
67457;BME280;54319;52.038;4.640;2024-03-07T10:27:50;102474.56;;;8.48;98.41
67457;BME280;54319;52.038;4.640;2024-03-07T10:30:17;102472.56;;;8.50;98.56
67457;BME280;54319;52.038;4.640;2024-03-07T10:32:47;102474.56;;;8.48;98.33
67457;BME280;54319;52.038;4.640;2024-03-07T10:35:21;102457.28;;;8.49;99.85
67457;BME280;54319;52.038;4.640;2024-03-07T10:37:51;102469.91;;;8.59;99.42
67457;BME280;54319;52.038;4.640;2024-03-07T10:40:19;102461.59;;;8.60;99.94
67457;BME280;54319;52.038;4.640;2024-03-07T10:42:48;102471.88;;;8.75;100.00
67457;BME280;54319;52.038;4.640;2024-03-07T10:45:20;102444.53;;;8.76;98.28
67457;BME280;54319;52.038;4.640;2024-03-07T10:47:53;102440.16;;;8.83;95.59
67457;BME280;54319;52.038;4.640;2024-03-07T10:50:29;102464.75;;;9.08;96.48
67457;BME280;54319;52.038;4.640;2024-03-07T10:52:58;102432.03;;;8.92;96.06
67457;BME280;54319;52.038;4.640;2024-03-07T10:55:33;102468.09;;;8.94;94.54
67457;BME280;54319;52.038;4.640;2024-03-07T10:58:04;102457.56;;;8.99;95.02
67457;BME280;54319;52.038;4.640;2024-03-07T11:00:35;102455.47;;;9.19;94.66
67457;BME280;54319;52.038;4.640;2024-03-07T11:03:06;102458.25;;;9.01;96.42
67457;BME280;54319;52.038;4.640;2024-03-07T11:05:34;102456.03;;;8.96;95.94
67457;BME280;54319;52.038;4.640;2024-03-07T11:08:03;102448.28;;;9.10;93.88
67457;BME280;54319;52.038;4.640;2024-03-07T11:10:37;102454.94;;;9.16;95.65
67457;BME280;54319;52.038;4.640;2024-03-07T11:13:04;102453.41;;;9.21;94.46
67457;BME280;54319;52.038;4.640;2024-03-07T11:15:33;102447.13;;;9.21;95.49
67457;BME280;54319;52.038;4.640;2024-03-07T11:18:00;102442.06;;;9.26;92.49
67457;BME280;54319;52.038;4.640;2024-03-07T11:20:36;102443.28;;;9.32;92.33
67457;BME280;54319;52.038;4.640;2024-03-07T11:23:24;102432.50;;;9.22;92.61
67457;BME280;54319;52.038;4.640;2024-03-07T11:25:53;102431.13;;;9.18;92.70
67457;BME280;54319;52.038;4.640;2024-03-07T11:28:28;102429.44;;;9.17;92.13
67457;BME280;54319;52.038;4.640;2024-03-07T11:31:07;102422.75;;;9.11;91.73
67457;BME280;54319;52.038;4.640;2024-03-07T11:33:36;102422.00;;;9.35;90.82
67457;BME280;54319;52.038;4.640;2024-03-07T11:36:07;102413.13;;;9.33;85.62
67457;BME280;54319;52.038;4.640;2024-03-07T11:38:35;102408.34;;;9.27;84.43
67457;BME280;54319;52.038;4.640;2024-03-07T11:41:03;102407.09;;;9.13;86.76
67457;BME280;54319;52.038;4.640;2024-03-07T11:43:31;102404.03;;;9.08;85.71
67457;BME280;54319;52.038;4.640;2024-03-07T11:45:59;102400.84;;;9.21;87.72
67457;BME280;54319;52.038;4.640;2024-03-07T11:48:26;102392.53;;;9.31;86.70
67457;BME280;54319;52.038;4.640;2024-03-07T11:50:53;102395.97;;;9.33;87.80
67457;BME280;54319;52.038;4.640;2024-03-07T11:53:21;102385.75;;;9.43;88.75
67457;BME280;54319;52.038;4.640;2024-03-07T11:55:48;102375.38;;;9.47;88.79
67457;BME280;54319;52.038;4.640;2024-03-07T11:58:17;102374.38;;;9.48;87.90
67457;BME280;54319;52.038;4.640;2024-03-07T12:00:47;102378.13;;;9.63;86.69
67457;BME280;54319;52.038;4.640;2024-03-07T12:03:15;102370.97;;;9.79;84.61
67457;BME280;54319;52.038;4.640;2024-03-07T12:05:44;102332.66;;;9.64;85.41
67457;BME280;54319;52.038;4.640;2024-03-07T12:08:11;102361.47;;;9.99;85.86
67457;BME280;54319;52.038;4.640;2024-03-07T12:10:43;102346.13;;;9.82;83.99
67457;BME280;54319;52.038;4.640;2024-03-07T12:13:10;102359.91;;;9.64;81.96
67457;BME280;54319;52.038;4.640;2024-03-07T12:15:38;102348.63;;;9.34;82.39
67457;BME280;54319;52.038;4.640;2024-03-07T12:18:06;102322.91;;;9.28;84.37
67457;BME280;54319;52.038;4.640;2024-03-07T12:20:39;102332.66;;;9.55;84.50
67457;BME280;54319;52.038;4.640;2024-03-07T12:23:07;102332.00;;;9.78;82.30
67457;BME280;54319;52.038;4.640;2024-03-07T12:25:34;102330.81;;;9.89;78.18
67457;BME280;54319;52.038;4.640;2024-03-07T12:28:04;102330.97;;;9.79;78.87
67457;BME280;54319;52.038;4.640;2024-03-07T12:30:33;102338.09;;;9.55;79.99
67457;BME280;54319;52.038;4.640;2024-03-07T12:33:02;102322.97;;;9.61;81.56
67457;BME280;54319;52.038;4.640;2024-03-07T12:35:32;102318.19;;;9.55;82.52
67457;BME280;54319;52.038;4.640;2024-03-07T12:37:59;102313.75;;;9.79;81.86
67457;BME280;54319;52.038;4.640;2024-03-07T12:40:29;102305.75;;;9.77;82.04
67457;BME280;54319;52.038;4.640;2024-03-07T12:42:59;102303.69;;;9.63;81.57
67457;BME280;54319;52.038;4.640;2024-03-07T12:45:29;102303.53;;;9.73;84.86
67457;BME280;54319;52.038;4.640;2024-03-07T12:47:59;102284.09;;;9.84;82.61
67457;BME280;54319;52.038;4.640;2024-03-07T12:50:29;102297.06;;;9.82;80.73
67457;BME280;54319;52.038;4.640;2024-03-07T12:53:00;102282.44;;;9.66;80.98
67457;BME280;54319;52.038;4.640;2024-03-07T12:55:31;102284.28;;;9.91;80.79
67457;BME280;54319;52.038;4.640;2024-03-07T12:57:58;102293.78;;;10.20;79.54